createdAt,value
2023-05-05T00:00:46.414Z,46.13
2023-05-05T00:01:46.535Z,46.24
2023-05-05T00:02:46.585Z,46.34
2023-05-05T00:03:46.612Z,46.42
2023-05-05T00:04:46.635Z,46.45
2023-05-05T00:05:46.687Z,46.60
2023-05-05T00:06:46.734Z,46.55
2023-05-05T00:07:46.779Z,46.73
2023-05-05T00:08:46.777Z,46.93
2023-05-05T00:09:46.811Z,47.08
2023-05-05T00:10:46.872Z,47.13
2023-05-05T00:11:46.922Z,47.29
2023-05-05T00:12:46.980Z,47.41
2023-05-05T00:13:47.008Z,47.55
2023-05-05T00:14:47.066Z,47.96
2023-05-05T00:15:47.146Z,48.12
2023-05-05T00:16:47.250Z,48.31
2023-05-05T00:17:47.252Z,48.22
2023-05-05T00:18:47.257Z,48.31
2023-05-05T00:19:47.302Z,48.20
2023-05-05T00:20:47.563Z,48.30
2023-05-05T00:21:47.332Z,48.31
2023-05-05T00:22:47.315Z,48.34
2023-05-05T00:23:47.328Z,48.47
2023-05-05T00:24:47.332Z,48.46
2023-05-05T00:25:47.349Z,48.42
2023-05-05T00:26:47.343Z,48.53
2023-05-05T00:27:47.372Z,48.58
2023-05-05T00:28:47.390Z,48.38
2023-05-05T00:29:47.404Z,48.40
2023-05-05T00:30:47.481Z,48.25
2023-05-05T00:31:47.415Z,48.14
2023-05-05T00:32:47.464Z,48.03
2023-05-05T00:33:47.474Z,48.00
2023-05-05T00:34:47.501Z,48.13
2023-05-05T00:35:47.503Z,48.28
2023-05-05T00:36:47.523Z,48.04
2023-05-05T00:37:47.527Z,48.23
2023-05-05T00:38:47.564Z,48.50
2023-05-05T00:39:47.578Z,48.57
2023-05-05T00:40:47.606Z,48.77
2023-05-05T00:41:47.616Z,48.85
2023-05-05T00:42:47.641Z,48.94
2023-05-05T00:43:47.639Z,49.08
2023-05-05T00:44:47.659Z,49.04
2023-05-05T00:45:47.791Z,49.05
2023-05-05T00:46:47.741Z,49.07
2023-05-05T00:47:47.724Z,48.95
2023-05-05T00:48:47.729Z,48.96
2023-05-05T00:49:47.747Z,48.83
2023-05-05T00:50:47.782Z,48.83
2023-05-05T00:51:47.765Z,48.61
2023-05-05T00:52:47.779Z,48.58
2023-05-05T00:53:47.810Z,48.63
2023-05-05T00:54:47.824Z,48.66
2023-05-05T00:55:47.839Z,48.54
2023-05-05T00:56:47.868Z,48.86
2023-05-05T00:57:47.869Z,48.99
2023-05-05T00:58:47.892Z,49.04
2023-05-05T00:59:47.925Z,49.20
2023-05-05T01:00:47.943Z,49.28
2023-05-05T01:01:48.022Z,49.45
2023-05-05T01:02:48.050Z,49.71
2023-05-05T01:03:48.072Z,50.01
2023-05-05T01:04:48.000Z,49.96
2023-05-05T01:05:48.018Z,50.03
2023-05-05T01:06:48.033Z,50.09
2023-05-05T01:07:48.065Z,50.11
2023-05-05T01:08:48.057Z,50.19
2023-05-05T01:09:48.083Z,49.90
2023-05-05T01:10:48.107Z,49.77
2023-05-05T01:11:48.123Z,49.79
2023-05-05T01:12:48.191Z,49.86
2023-05-05T01:13:48.176Z,49.66
2023-05-05T01:14:48.187Z,49.49
2023-05-05T01:15:48.253Z,49.60
2023-05-05T01:16:48.241Z,49.25
2023-05-05T01:17:48.277Z,49.08
2023-05-05T01:18:48.252Z,49.04
2023-05-05T01:19:48.283Z,48.96
2023-05-05T01:20:48.302Z,48.83
2023-05-05T01:21:48.304Z,48.71
2023-05-05T01:22:48.346Z,48.59
2023-05-05T01:23:48.359Z,48.82
2023-05-05T01:24:48.379Z,48.97
2023-05-05T01:25:48.377Z,49.29
2023-05-05T01:26:48.386Z,49.21
2023-05-05T01:27:48.430Z,49.33
2023-05-05T01:28:48.441Z,49.21
2023-05-05T01:29:48.465Z,49.40
2023-05-05T01:30:48.459Z,49.30
2023-05-05T01:31:48.518Z,49.26
2023-05-05T01:32:48.586Z,49.43
2023-05-05T01:33:48.528Z,49.60
2023-05-05T01:34:48.558Z,49.70
2023-05-05T01:35:48.567Z,49.85
2023-05-05T01:36:48.565Z,50.16
2023-05-05T01:37:48.585Z,50.48
2023-05-05T01:38:48.605Z,50.40
2023-05-05T01:39:48.598Z,50.41
2023-05-05T01:40:48.596Z,50.25
2023-05-05T01:41:48.627Z,50.15
2023-05-05T01:42:48.611Z,50.02
2023-05-05T01:43:48.659Z,49.93
2023-05-05T01:44:48.647Z,50.00
2023-05-05T01:45:48.718Z,50.13
2023-05-05T01:46:48.680Z,50.40
2023-05-05T01:47:48.787Z,50.33
2023-05-05T01:48:48.715Z,50.39
2023-05-05T01:49:48.727Z,50.65
2023-05-05T01:50:48.736Z,50.72
2023-05-05T01:51:48.734Z,50.97
2023-05-05T01:52:48.756Z,51.08
2023-05-05T01:53:48.753Z,51.15
2023-05-05T01:54:48.770Z,51.19
2023-05-05T01:55:48.806Z,51.10
2023-05-05T01:56:48.795Z,51.12
2023-05-05T01:57:48.814Z,51.17
2023-05-05T01:58:48.846Z,51.28
2023-05-05T01:59:48.847Z,51.42
2023-05-05T02:00:48.846Z,51.55
2023-05-05T02:01:48.888Z,51.23
2023-05-05T02:02:48.962Z,51.47
2023-05-05T02:03:48.897Z,51.48
2023-05-05T02:04:48.922Z,51.37
2023-05-05T02:05:48.951Z,51.51
2023-05-05T02:06:48.949Z,51.50
2023-05-05T02:07:48.998Z,51.47
2023-05-05T02:08:49.011Z,51.55
2023-05-05T02:09:49.053Z,51.53
2023-05-05T02:10:49.053Z,51.66
2023-05-05T02:11:49.068Z,51.60
2023-05-05T02:12:49.130Z,51.57
2023-05-05T02:13:49.220Z,51.65
2023-05-05T02:14:49.145Z,51.73
2023-05-05T02:15:49.219Z,51.50
2023-05-05T02:16:49.196Z,51.56
2023-05-05T02:17:49.263Z,51.48
2023-05-05T02:18:49.258Z,51.52
2023-05-05T02:19:49.299Z,51.55
2023-05-05T02:20:49.340Z,51.22
2023-05-05T02:21:49.343Z,51.22
2023-05-05T02:22:49.394Z,51.07
2023-05-05T02:23:49.425Z,50.89
2023-05-05T02:24:49.460Z,50.46
2023-05-05T02:25:49.476Z,50.49
2023-05-05T02:26:49.506Z,50.78
2023-05-05T02:27:49.532Z,50.94
2023-05-05T02:28:49.580Z,50.96
2023-05-05T02:29:49.601Z,51.11
2023-05-05T02:30:49.638Z,51.27
2023-05-05T02:31:49.683Z,51.46
2023-05-05T02:32:49.747Z,51.56
2023-05-05T02:33:49.704Z,51.63
2023-05-05T02:34:49.729Z,51.44
2023-05-05T02:35:49.729Z,51.57
2023-05-05T02:36:49.738Z,51.63
2023-05-05T02:37:49.795Z,51.44
2023-05-05T02:38:49.827Z,51.14
2023-05-05T02:39:49.871Z,51.04
2023-05-05T02:40:49.912Z,50.91
2023-05-05T02:41:49.938Z,50.76
2023-05-05T02:42:50.010Z,50.73
2023-05-05T02:43:50.021Z,50.70
2023-05-05T02:44:50.063Z,50.72
2023-05-05T02:45:50.105Z,50.90
2023-05-05T02:46:50.156Z,51.21
2023-05-05T02:47:50.185Z,51.35
2023-05-05T02:48:50.213Z,51.52
2023-05-05T02:49:50.248Z,51.55
2023-05-05T02:50:50.308Z,51.77
2023-05-05T02:51:50.330Z,51.86
2023-05-05T02:52:50.392Z,52.00
2023-05-05T02:53:50.467Z,52.07
2023-05-05T02:54:50.508Z,52.17
2023-05-05T02:55:50.582Z,52.22
2023-05-05T02:56:50.644Z,52.29
2023-05-05T02:57:50.708Z,52.38
2023-05-05T02:58:50.755Z,52.49
2023-05-05T02:59:50.781Z,52.56
2023-05-05T03:00:50.783Z,52.72
2023-05-05T03:01:50.890Z,52.85
2023-05-05T03:02:50.907Z,53.01
2023-05-05T03:03:50.935Z,52.92
2023-05-05T03:04:50.852Z,52.64
2023-05-05T03:05:50.839Z,52.46
2023-05-05T03:06:50.863Z,52.29
2023-05-05T03:07:50.874Z,52.01
2023-05-05T03:08:50.916Z,51.85
2023-05-05T03:09:50.928Z,51.71
2023-05-05T03:10:50.951Z,51.61
2023-05-05T03:11:51.023Z,51.42
2023-05-05T03:12:51.064Z,50.96
2023-05-05T03:13:51.126Z,50.88
2023-05-05T03:14:51.171Z,50.77
2023-05-05T03:15:51.262Z,50.49
2023-05-05T03:16:51.346Z,50.50
2023-05-05T03:17:51.380Z,50.97
2023-05-05T03:18:51.404Z,51.09
2023-05-05T03:19:51.472Z,51.41
2023-05-05T03:20:51.503Z,51.64
2023-05-05T03:21:51.547Z,51.85
2023-05-05T03:22:51.599Z,52.02
2023-05-05T03:23:51.665Z,52.07
2023-05-05T03:24:51.723Z,52.27
2023-05-05T03:25:51.779Z,52.27
2023-05-05T03:26:51.866Z,52.48
2023-05-05T03:27:51.986Z,52.47
2023-05-05T03:28:51.939Z,52.55
2023-05-05T03:29:51.992Z,52.49
2023-05-05T03:30:52.030Z,52.44
2023-05-05T03:31:52.112Z,52.53
2023-05-05T03:32:52.211Z,52.53
2023-05-05T03:33:52.203Z,52.49
2023-05-05T03:34:52.263Z,52.54
2023-05-05T03:35:52.316Z,52.68
2023-05-05T03:36:52.383Z,53.00
2023-05-05T03:37:52.436Z,53.15
2023-05-05T03:38:52.506Z,53.14
2023-05-05T03:39:52.574Z,53.07
2023-05-05T03:40:52.614Z,52.85
2023-05-05T03:41:52.694Z,53.00
2023-05-05T03:42:52.785Z,53.09
2023-05-05T03:43:52.840Z,53.02
2023-05-05T03:44:52.874Z,52.97
2023-05-05T03:45:52.968Z,53.17
2023-05-05T03:46:53.009Z,53.14
2023-05-05T03:47:53.092Z,53.20
2023-05-05T03:48:53.110Z,53.23
2023-05-05T03:49:53.194Z,53.20
2023-05-05T03:50:53.242Z,53.38
2023-05-05T03:51:53.299Z,53.44
2023-05-05T03:52:53.361Z,53.26
2023-05-05T03:53:53.408Z,53.10
2023-05-05T03:54:53.428Z,53.15
2023-05-05T03:55:53.511Z,53.35
2023-05-05T03:56:53.539Z,53.44
2023-05-05T03:57:53.592Z,53.24
2023-05-05T03:58:53.604Z,53.21
2023-05-05T03:59:53.595Z,53.25
2023-05-05T04:00:53.592Z,53.35
2023-05-05T04:01:53.573Z,53.47
2023-05-05T04:02:53.658Z,53.43
2023-05-05T04:03:53.673Z,53.57
2023-05-05T04:04:53.582Z,53.51
2023-05-05T04:05:53.587Z,53.46
2023-05-05T04:06:53.603Z,53.42
2023-05-05T04:07:53.611Z,53.28
2023-05-05T04:08:53.640Z,53.36
2023-05-05T04:09:53.622Z,53.32
2023-05-05T04:10:53.650Z,53.26
2023-05-05T04:11:53.655Z,53.10
2023-05-05T04:12:53.699Z,52.87
2023-05-05T04:13:53.678Z,52.74
2023-05-05T04:14:53.686Z,52.53
2023-05-05T04:15:53.742Z,52.46
2023-05-05T04:16:53.685Z,52.34
2023-05-05T04:17:53.762Z,52.05
2023-05-05T04:18:53.695Z,52.07
2023-05-05T04:19:53.712Z,51.88
2023-05-05T04:20:53.716Z,51.77
2023-05-05T04:21:53.715Z,51.59
2023-05-05T04:22:53.750Z,51.44
2023-05-05T04:23:53.764Z,51.39
2023-05-05T04:24:53.782Z,51.31
2023-05-05T04:25:53.817Z,51.31
2023-05-05T04:26:53.874Z,51.40
2023-05-05T04:27:53.913Z,51.23
2023-05-05T04:28:53.951Z,51.07
2023-05-05T04:29:54.036Z,50.99
2023-05-05T04:30:54.108Z,51.03
2023-05-05T04:31:54.093Z,51.16
2023-05-05T04:32:54.215Z,50.92
2023-05-05T04:33:54.231Z,51.26
2023-05-05T04:34:54.271Z,51.63
2023-05-05T04:35:54.348Z,51.82
2023-05-05T04:36:54.437Z,52.22
2023-05-05T04:37:54.506Z,52.50
2023-05-05T04:38:54.580Z,52.84
2023-05-05T04:39:54.478Z,53.14
2023-05-05T04:40:54.510Z,53.31
2023-05-05T04:41:54.495Z,53.11
2023-05-05T04:42:54.527Z,52.73
2023-05-05T04:43:54.562Z,52.44
2023-05-05T04:44:54.621Z,52.45
2023-05-05T04:45:54.706Z,52.61
2023-05-05T04:46:54.795Z,52.35
2023-05-05T04:47:54.844Z,52.07
2023-05-05T04:48:54.844Z,51.83
2023-05-05T04:49:54.897Z,51.79
2023-05-05T04:50:54.960Z,51.83
2023-05-05T04:51:55.018Z,51.85
2023-05-05T04:52:55.098Z,51.95
2023-05-05T04:53:55.309Z,52.03
2023-05-05T04:54:55.205Z,52.27
2023-05-05T04:55:55.256Z,52.71
2023-05-05T04:56:55.322Z,52.77
2023-05-05T04:57:55.370Z,52.80
2023-05-05T04:58:55.429Z,52.83
2023-05-05T04:59:55.477Z,52.77
2023-05-05T05:00:55.519Z,52.80
2023-05-05T05:01:55.631Z,52.39
2023-05-05T05:02:55.727Z,52.32
2023-05-05T05:03:55.732Z,52.34
2023-05-05T05:04:55.707Z,52.36
2023-05-05T05:05:55.728Z,52.14
2023-05-05T05:06:57.559Z,52.22
2023-05-05T05:07:55.755Z,52.19
2023-05-05T05:08:55.745Z,51.96
2023-05-05T05:09:55.746Z,51.62
2023-05-05T05:10:55.728Z,51.62
2023-05-05T05:11:55.715Z,51.51
2023-05-05T05:12:55.818Z,51.37
2023-05-05T05:13:55.717Z,51.29
2023-05-05T05:14:55.711Z,51.62
2023-05-05T05:15:55.704Z,51.66
2023-05-05T05:16:55.756Z,52.13
2023-05-05T05:17:55.726Z,52.22
2023-05-05T05:18:55.689Z,51.66
2023-05-05T05:19:55.654Z,51.44
2023-05-05T05:20:55.689Z,51.18
2023-05-05T05:21:55.653Z,51.44
2023-05-05T05:22:55.646Z,51.40
2023-05-05T05:23:55.661Z,51.55
2023-05-05T05:24:55.651Z,50.91
2023-05-05T05:25:55.655Z,50.62
2023-05-05T05:26:55.960Z,50.16
2023-05-05T05:28:08.738Z,50.18
2023-05-05T05:28:56.616Z,50.35
2023-05-05T05:29:55.616Z,50.95
2023-05-05T05:30:55.595Z,51.29
2023-05-05T05:31:55.658Z,50.73
2023-05-05T05:32:55.623Z,50.55
2023-05-05T05:33:55.618Z,50.85
2023-05-05T05:34:55.574Z,51.19
2023-05-05T05:35:55.559Z,51.42
2023-05-05T05:36:55.533Z,51.51
2023-05-05T05:37:55.535Z,51.62
2023-05-05T05:38:55.529Z,51.54
2023-05-05T05:39:55.548Z,51.30
2023-05-05T05:40:55.515Z,51.21
2023-05-05T05:41:55.537Z,51.26
2023-05-05T05:42:55.517Z,51.33
2023-05-05T05:43:55.499Z,51.13
2023-05-05T05:44:55.489Z,50.87
2023-05-05T05:45:55.508Z,50.99
2023-05-05T05:46:55.484Z,51.15
2023-05-05T05:47:55.512Z,51.29
2023-05-05T05:48:55.467Z,51.55
2023-05-05T05:49:55.459Z,51.43
2023-05-05T05:50:55.521Z,51.49
2023-05-05T05:51:55.492Z,51.55
2023-05-05T05:52:55.465Z,51.28
2023-05-05T05:53:58.212Z,51.78
2023-05-05T05:54:55.486Z,51.52
2023-05-05T05:55:55.599Z,51.73
2023-05-05T05:56:55.447Z,52.56
2023-05-05T05:57:55.551Z,53.08
2023-05-05T05:58:55.423Z,53.41
2023-05-05T05:59:55.435Z,52.50
2023-05-05T06:00:55.405Z,52.39
2023-05-05T06:01:55.390Z,52.57
2023-05-05T06:02:55.617Z,52.76
2023-05-05T06:03:55.548Z,52.74
2023-05-05T06:04:55.363Z,52.67
2023-05-05T06:05:55.402Z,52.64
2023-05-05T06:06:55.362Z,52.21
2023-05-05T06:07:55.394Z,52.26
2023-05-05T06:08:55.343Z,52.82
2023-05-05T06:09:55.361Z,52.75
2023-05-05T06:10:55.388Z,52.99
2023-05-05T06:11:55.333Z,52.81
2023-05-05T06:12:55.370Z,52.08
2023-05-05T06:13:55.373Z,52.38
2023-05-05T06:14:55.357Z,52.77
2023-05-05T06:15:55.336Z,52.56
2023-05-05T06:16:55.291Z,51.31
2023-05-05T06:17:55.359Z,50.76
2023-05-05T06:18:55.487Z,51.01
2023-05-05T06:19:55.268Z,51.09
2023-05-05T06:20:55.263Z,50.18
2023-05-05T06:21:55.280Z,49.82
2023-05-05T06:22:55.262Z,49.81
2023-05-05T06:23:55.278Z,50.27
2023-05-05T06:24:55.231Z,50.48
2023-05-05T06:25:55.241Z,50.19
2023-05-05T06:26:55.225Z,49.44
2023-05-05T06:27:55.360Z,49.44
2023-05-05T06:28:55.259Z,49.71
2023-05-05T06:29:55.290Z,49.66
2023-05-05T06:30:55.196Z,49.41
2023-05-05T06:31:55.466Z,48.82
2023-05-05T06:32:55.253Z,49.13
2023-05-05T06:33:55.287Z,48.61
2023-05-05T06:34:55.226Z,47.84
2023-05-05T06:35:55.196Z,48.16
2023-05-05T06:36:55.194Z,47.86
2023-05-05T06:37:55.287Z,47.45
2023-05-05T06:38:55.124Z,47.43
2023-05-05T06:39:55.133Z,47.75
2023-05-05T06:40:55.118Z,47.75
2023-05-05T06:41:55.103Z,47.96
2023-05-05T06:42:55.104Z,48.20
2023-05-05T06:43:55.459Z,48.27
2023-05-05T06:44:55.098Z,48.83
2023-05-05T06:45:55.099Z,47.98
2023-05-05T06:46:55.559Z,47.95
2023-05-05T06:47:55.133Z,48.25
2023-05-05T06:48:55.072Z,47.30
2023-05-05T06:49:55.073Z,46.44
2023-05-05T06:50:55.133Z,47.12
2023-05-05T06:51:55.187Z,47.09
2023-05-05T06:52:55.278Z,47.08
2023-05-05T06:53:55.480Z,46.69
2023-05-05T06:54:55.377Z,46.45
2023-05-05T06:55:55.438Z,46.81
2023-05-05T06:56:56.556Z,47.01
2023-05-05T06:57:55.539Z,46.90
2023-05-05T06:58:55.631Z,46.96
2023-05-05T06:59:55.671Z,47.12
2023-05-05T07:00:55.778Z,46.99
2023-05-05T07:01:56.596Z,46.30
2023-05-05T07:02:55.871Z,46.23
2023-05-05T07:03:55.895Z,46.19
2023-05-05T07:04:55.925Z,45.90
2023-05-05T07:05:55.966Z,45.53
2023-05-05T07:06:56.017Z,45.67
2023-05-05T07:07:56.073Z,45.98
2023-05-05T07:08:56.481Z,45.96
2023-05-05T07:09:56.145Z,45.86
2023-05-05T07:10:56.214Z,45.34
2023-05-05T07:11:56.555Z,45.02
2023-05-05T07:12:56.240Z,45.45
2023-05-05T07:13:56.294Z,45.47
2023-05-05T07:14:56.274Z,45.31
2023-05-05T07:15:56.325Z,45.61
2023-05-05T07:16:56.346Z,45.96
2023-05-05T07:17:56.476Z,45.13
2023-05-05T07:18:56.334Z,45.28
2023-05-05T07:19:56.395Z,45.48
2023-05-05T07:20:56.358Z,45.87
2023-05-05T07:21:56.376Z,46.28
2023-05-05T07:22:56.372Z,44.77
2023-05-05T07:23:56.375Z,44.51
2023-05-05T07:24:56.387Z,44.57
2023-05-05T07:25:56.436Z,44.81
2023-05-05T07:26:56.488Z,44.32
2023-05-05T07:27:56.574Z,43.87
2023-05-05T07:28:56.587Z,43.55
2023-05-05T07:29:56.624Z,44.04
2023-05-05T07:30:56.647Z,43.85
2023-05-05T07:31:56.799Z,43.61
2023-05-05T07:32:56.908Z,43.73
2023-05-05T07:33:56.866Z,44.25
2023-05-05T07:34:56.882Z,42.75
2023-05-05T07:35:56.935Z,42.61
2023-05-05T07:36:56.995Z,42.99
2023-05-05T07:37:56.996Z,43.33
2023-05-05T07:38:57.064Z,43.02
2023-05-05T07:39:57.133Z,43.23
2023-05-05T07:40:57.460Z,43.39
2023-05-05T07:41:57.285Z,43.13
2023-05-05T07:42:57.214Z,42.75
2023-05-05T07:43:57.495Z,43.15
2023-05-05T07:44:57.317Z,42.79
2023-05-05T07:45:57.315Z,43.06
2023-05-05T07:46:57.277Z,43.27
2023-05-05T07:47:57.424Z,43.17
2023-05-05T07:48:57.499Z,43.01
2023-05-05T07:49:57.376Z,42.99
2023-05-05T07:50:57.331Z,42.55
2023-05-05T07:51:57.360Z,42.53
2023-05-05T07:53:10.142Z,43.31
2023-05-05T07:53:58.483Z,43.02
2023-05-05T07:54:57.333Z,42.56
2023-05-05T07:55:57.335Z,43.02
2023-05-05T07:56:57.344Z,43.06
2023-05-05T07:57:57.319Z,43.27
2023-05-05T07:58:57.496Z,43.62
2023-05-05T07:59:57.329Z,42.55
2023-05-05T08:00:57.335Z,42.63
2023-05-05T08:01:57.485Z,41.89
2023-05-05T08:02:57.323Z,42.06
2023-05-05T08:03:57.337Z,41.81
2023-05-05T08:04:57.299Z,41.86
2023-05-05T08:05:57.376Z,42.22
2023-05-05T08:06:57.266Z,42.76
2023-05-05T08:07:57.260Z,42.81
2023-05-05T08:08:57.272Z,42.65
2023-05-05T08:09:57.326Z,42.80
2023-05-05T08:10:57.366Z,43.12
2023-05-05T08:11:57.459Z,43.50
2023-05-05T08:12:57.522Z,43.16
2023-05-05T08:13:57.530Z,42.87
2023-05-05T08:14:57.593Z,42.81
2023-05-05T08:15:57.696Z,42.74
2023-05-05T08:16:57.734Z,42.23
2023-05-05T08:17:57.835Z,41.98
2023-05-05T08:18:58.004Z,41.73
2023-05-05T08:19:57.902Z,41.63
2023-05-05T08:20:58.006Z,41.50
2023-05-05T08:22:00.559Z,41.50
2023-05-05T08:22:59.200Z,41.51
2023-05-05T08:23:58.563Z,41.44
2023-05-05T08:24:58.034Z,41.50
2023-05-05T08:25:58.147Z,41.36
2023-05-05T08:26:57.998Z,41.23
2023-05-05T08:27:57.974Z,41.55
2023-05-05T08:28:58.022Z,42.48
2023-05-05T08:29:58.011Z,42.71
2023-05-05T08:30:57.952Z,42.60
2023-05-05T08:31:58.029Z,42.63
2023-05-05T08:32:58.023Z,42.49
2023-05-05T08:33:57.940Z,41.92
2023-05-05T08:34:57.972Z,42.26
2023-05-05T08:35:57.913Z,42.10
2023-05-05T08:36:57.889Z,41.86
2023-05-05T08:37:59.221Z,42.12
2023-05-05T08:38:57.900Z,41.44
2023-05-05T08:39:57.912Z,41.52
2023-05-05T08:40:57.903Z,40.99
2023-05-05T08:41:57.878Z,40.18
2023-05-05T08:42:57.892Z,40.40
2023-05-05T08:43:57.866Z,40.54
2023-05-05T08:44:59.081Z,40.87
2023-05-05T08:45:57.879Z,40.97
2023-05-05T08:46:57.992Z,40.88
2023-05-05T08:47:58.034Z,40.95
2023-05-05T08:48:57.857Z,41.70
2023-05-05T08:49:57.877Z,41.86
2023-05-05T08:50:59.800Z,41.95
2023-05-05T08:51:58.073Z,41.50
2023-05-05T08:52:58.210Z,40.71
2023-05-05T08:53:58.556Z,41.21
2023-05-05T08:54:58.186Z,41.43
2023-05-05T08:55:58.200Z,41.55
2023-05-05T08:56:58.231Z,41.55
2023-05-05T08:57:58.347Z,41.30
2023-05-05T08:58:58.279Z,41.11
2023-05-05T08:59:58.332Z,41.55
2023-05-05T09:00:58.351Z,42.51
2023-05-05T09:01:58.391Z,42.21
2023-05-05T09:02:58.613Z,42.01
2023-05-05T09:03:58.491Z,41.97
2023-05-05T09:04:58.535Z,41.56
2023-05-05T09:05:58.594Z,41.55
2023-05-05T09:06:58.644Z,41.70
2023-05-05T09:07:58.753Z,41.01
2023-05-05T09:08:59.803Z,40.97
2023-05-05T09:09:58.884Z,40.80
2023-05-05T09:10:58.902Z,40.92
2023-05-05T09:11:59.004Z,40.89
2023-05-05T09:12:59.029Z,41.46
2023-05-05T09:13:59.079Z,42.08
2023-05-05T09:14:59.511Z,42.37
2023-05-05T09:15:59.166Z,42.07
2023-05-05T09:16:59.222Z,41.84
2023-05-05T09:17:59.192Z,41.56
2023-05-05T09:18:59.230Z,41.90
2023-05-05T09:19:59.266Z,41.96
2023-05-05T09:20:59.658Z,42.23
2023-05-05T09:21:59.381Z,41.67
2023-05-05T09:22:59.416Z,41.58
2023-05-05T09:24:07.423Z,41.68
2023-05-05T09:25:00.440Z,43.40
2023-05-05T09:25:59.538Z,43.98
2023-05-05T09:26:59.408Z,43.59
2023-05-05T09:27:59.402Z,42.86
2023-05-05T09:28:59.432Z,41.61
2023-05-05T09:29:59.378Z,40.74
2023-05-05T09:30:59.446Z,40.71
2023-05-05T09:31:59.373Z,40.32
2023-05-05T09:32:59.615Z,40.25
2023-05-05T09:33:59.357Z,40.18
2023-05-05T09:34:59.377Z,39.91
2023-05-05T09:35:59.359Z,39.81
2023-05-05T09:36:59.343Z,40.32
2023-05-05T09:37:59.528Z,41.41
2023-05-05T09:38:59.319Z,42.07
2023-05-05T09:39:59.324Z,41.52
2023-05-05T09:40:59.329Z,41.21
2023-05-05T09:41:59.463Z,41.03
2023-05-05T09:42:59.293Z,42.14
2023-05-05T09:43:59.304Z,41.80
2023-05-05T09:44:59.973Z,41.11
2023-05-05T09:45:59.301Z,40.95
2023-05-05T09:46:59.298Z,41.26
2023-05-05T09:48:00.702Z,41.59
2023-05-05T09:48:59.398Z,40.81
2023-05-05T09:49:59.456Z,40.66
2023-05-05T09:50:59.496Z,40.63
2023-05-05T09:51:59.538Z,40.80
2023-05-05T09:52:59.596Z,39.66
2023-05-05T09:53:59.630Z,38.48
2023-05-05T09:54:59.672Z,38.41
2023-05-05T09:55:59.734Z,38.64
2023-05-05T09:56:59.773Z,39.42
2023-05-05T09:57:59.851Z,39.01
2023-05-05T09:58:59.827Z,39.00
2023-05-05T09:59:59.888Z,39.32
2023-05-05T10:00:59.910Z,38.54
2023-05-05T10:02:00.034Z,37.79
2023-05-05T10:03:00.032Z,37.77
2023-05-05T10:03:59.998Z,38.94
2023-05-05T10:05:02.144Z,37.63
2023-05-05T10:06:00.040Z,35.46
2023-05-05T10:07:00.065Z,34.77
2023-05-05T10:08:00.078Z,36.20
2023-05-05T10:09:00.125Z,36.97
2023-05-05T10:10:00.201Z,37.34
2023-05-05T10:11:00.139Z,37.40
2023-05-05T10:12:00.182Z,35.65
2023-05-05T10:13:00.200Z,35.70
2023-05-05T10:14:00.207Z,36.84
2023-05-05T10:15:00.149Z,36.93
2023-05-05T10:16:00.176Z,36.51
2023-05-05T10:17:00.144Z,36.18
2023-05-05T10:18:07.512Z,34.97
2023-05-05T10:19:01.117Z,34.41
2023-05-05T10:20:00.229Z,34.65
2023-05-05T10:21:00.162Z,35.81
2023-05-05T10:22:00.131Z,36.55
2023-05-05T10:23:00.129Z,36.41
2023-05-05T10:24:00.126Z,36.63
2023-05-05T10:25:00.113Z,37.50
2023-05-05T10:26:00.066Z,37.07
2023-05-05T10:27:00.057Z,37.45
2023-05-05T10:28:00.106Z,37.39
2023-05-05T10:29:00.180Z,37.69
2023-05-05T10:30:00.649Z,38.10
2023-05-05T10:31:00.262Z,38.38
2023-05-05T10:32:00.311Z,36.95
2023-05-05T10:34:00.602Z,36.96
2023-05-05T10:35:00.419Z,37.49
2023-05-05T10:36:00.469Z,37.35
2023-05-05T10:37:00.513Z,38.50
2023-05-05T10:38:00.531Z,36.71
2023-05-05T10:39:00.609Z,35.72
2023-05-05T10:40:00.602Z,35.92
2023-05-05T10:41:00.621Z,35.65
2023-05-05T10:42:00.653Z,35.94
2023-05-05T10:43:00.685Z,36.97
2023-05-05T10:44:03.626Z,37.90
2023-05-05T10:45:00.829Z,36.61
2023-05-05T10:46:01.109Z,36.43
2023-05-05T10:47:00.693Z,36.74
2023-05-05T10:48:00.792Z,38.18
2023-05-05T10:49:00.729Z,38.05
2023-05-05T10:50:00.690Z,37.92
2023-05-05T10:51:00.681Z,37.11
2023-05-05T10:52:00.678Z,36.74
2023-05-05T10:53:00.698Z,36.18
2023-05-05T10:54:00.707Z,35.84
2023-05-05T10:55:00.651Z,35.32
2023-05-05T10:56:00.653Z,35.90
2023-05-05T10:57:00.649Z,36.58
2023-05-05T10:58:00.635Z,36.31
2023-05-05T10:59:01.035Z,36.17
2023-05-05T11:00:01.062Z,36.12
2023-05-05T11:01:00.632Z,36.50
2023-05-05T11:02:00.621Z,37.23
2023-05-05T11:03:00.712Z,37.44
2023-05-05T11:04:00.628Z,37.25
2023-05-05T11:05:00.585Z,35.75
2023-05-05T11:06:00.555Z,36.58
2023-05-05T11:07:00.571Z,36.51
2023-05-05T11:08:00.545Z,35.52
2023-05-05T11:09:00.548Z,35.85
2023-05-05T11:10:00.573Z,35.34
2023-05-05T11:11:00.520Z,35.27
2023-05-05T11:12:00.514Z,35.25
2023-05-05T11:13:00.558Z,36.67
2023-05-05T11:14:00.521Z,36.01
2023-05-05T11:15:00.519Z,36.10
2023-05-05T11:16:00.510Z,35.60
2023-05-05T11:17:00.502Z,35.34
2023-05-05T11:18:01.929Z,34.80
2023-05-05T11:19:00.456Z,36.02
2023-05-05T11:20:00.566Z,35.43
2023-05-05T11:21:00.442Z,34.85
2023-05-05T11:22:00.437Z,34.87
2023-05-05T11:23:00.457Z,34.47
2023-05-05T11:24:00.436Z,34.08
2023-05-05T11:25:00.413Z,34.32
2023-05-05T11:26:00.437Z,34.56
2023-05-05T11:27:00.431Z,34.14
2023-05-05T11:28:00.440Z,33.78
2023-05-05T11:29:00.411Z,34.30
2023-05-05T11:30:00.400Z,33.89
2023-05-05T11:31:00.426Z,34.69
2023-05-05T11:32:00.388Z,34.15
2023-05-05T11:33:00.410Z,34.12
2023-05-05T11:34:00.423Z,34.32
2023-05-05T11:35:00.354Z,35.67
2023-05-05T11:36:00.388Z,35.25
2023-05-05T11:37:00.338Z,34.09
2023-05-05T11:38:00.346Z,34.78
2023-05-05T11:39:00.341Z,35.12
2023-05-05T11:40:00.346Z,32.65
2023-05-05T11:41:00.318Z,33.76
2023-05-05T11:42:01.026Z,34.41
2023-05-05T11:43:00.539Z,34.82
2023-05-05T11:44:00.562Z,32.93
2023-05-05T11:45:00.616Z,33.78
2023-05-05T11:46:00.648Z,32.93
2023-05-05T11:47:00.640Z,33.05
2023-05-05T11:48:00.716Z,32.86
2023-05-05T11:49:00.668Z,32.60
2023-05-05T11:50:00.732Z,32.70
2023-05-05T11:51:00.678Z,33.36
2023-05-05T11:52:00.742Z,32.95
2023-05-05T11:53:00.726Z,32.64
2023-05-05T11:54:00.746Z,32.17
2023-05-05T11:55:00.745Z,32.32
2023-05-05T11:56:00.738Z,32.52
2023-05-05T11:57:00.744Z,33.70
2023-05-05T11:58:00.760Z,33.06
2023-05-05T11:59:00.831Z,33.54
2023-05-05T12:00:00.879Z,33.90
2023-05-05T12:01:00.870Z,33.60
2023-05-05T12:02:00.886Z,32.41
2023-05-05T12:03:01.012Z,31.98
2023-05-05T12:04:01.315Z,31.94
2023-05-05T12:05:01.086Z,32.03
2023-05-05T12:06:01.210Z,32.20
2023-05-05T12:07:01.188Z,32.08
2023-05-05T12:08:01.226Z,34.54
2023-05-05T12:09:01.281Z,33.91
2023-05-05T12:10:01.384Z,35.01
2023-05-05T12:11:01.330Z,34.16
2023-05-05T12:12:01.462Z,33.57
2023-05-05T12:13:01.428Z,33.66
2023-05-05T12:14:01.412Z,33.22
2023-05-05T12:15:01.372Z,33.26
2023-05-05T12:16:01.442Z,33.14
2023-05-05T12:17:01.423Z,31.33
2023-05-05T12:18:03.046Z,30.60
2023-05-05T12:19:01.524Z,31.70
2023-05-05T12:20:01.517Z,31.03
2023-05-05T12:21:01.522Z,31.16
2023-05-05T12:22:01.547Z,30.18
2023-05-05T12:23:01.535Z,30.47
2023-05-05T12:24:01.541Z,30.24
2023-05-05T12:25:01.561Z,30.80
2023-05-05T12:26:01.574Z,31.15
2023-05-05T12:27:01.576Z,32.41
2023-05-05T12:28:01.597Z,31.72
2023-05-05T12:29:01.644Z,30.19
2023-05-05T12:30:01.598Z,29.51
2023-05-05T12:31:01.640Z,30.19
2023-05-05T12:32:01.727Z,32.06
2023-05-05T12:33:01.655Z,31.18
2023-05-05T12:34:01.653Z,32.38
2023-05-05T12:35:01.717Z,32.05
2023-05-05T12:36:01.769Z,32.09
2023-05-05T12:37:01.808Z,31.96
2023-05-05T12:38:01.927Z,31.54
2023-05-05T12:39:01.924Z,32.10
2023-05-05T12:40:01.976Z,32.22
2023-05-05T12:41:02.047Z,31.25
2023-05-05T12:42:02.072Z,32.16
2023-05-05T12:43:02.154Z,30.66
2023-05-05T12:44:02.207Z,30.40
2023-05-05T12:45:02.264Z,31.90
2023-05-05T12:46:02.384Z,28.07
2023-05-05T12:47:02.364Z,28.16
2023-05-05T12:48:02.426Z,28.98
2023-05-05T12:49:02.459Z,28.04
2023-05-05T12:50:02.527Z,29.51
2023-05-05T12:51:02.575Z,30.19
2023-05-05T12:52:02.627Z,29.79
2023-05-05T12:53:02.693Z,30.48
2023-05-05T12:54:02.804Z,30.79